Time;durP1;ratioP1;P1;durP2;ratioP2;P2;SDS_P1;SDS_P2;PMS_P1;PMS_P2;Temp;Humidity;BMP_temperature;BMP_pressure;BME280_temperature;BME280_humidity;BME280_pressure;Samples;Min_cycle;Max_cycle;Signal;HPM_P1;HPM_P2
2023/05/09 00:01:45;;;;;;;9.70;8.03;;;;;;;13.11;83.83;97369.41;5024443;28;20206;-72
2023/05/09 00:04:12;;;;;;;8.70;7.47;;;;;;;13.04;82.87;97369.69;5026772;28;20591;-71
2023/05/09 00:06:39;;;;;;;11.37;8.37;;;;;;;13.11;83.65;97364.22;5026263;28;20192;-70
2023/05/09 00:09:06;;;;;;;10.73;7.60;;;;;;;13.04;83.17;97364.47;5027001;28;20614;-72
2023/05/09 00:11:33;;;;;;;10.73;8.33;;;;;;;13.07;83.04;97366.94;5026035;28;20680;-71
2023/05/09 00:14:01;;;;;;;11.40;8.23;;;;;;;12.94;83.52;97370.22;5026954;28;20196;-70
2023/05/09 00:16:28;;;;;;;9.83;8.00;;;;;;;13.05;82.58;97367.94;5026459;28;20281;-71
2023/05/09 00:18:56;;;;;;;9.83;8.30;;;;;;;13.08;82.92;97358.22;5026614;28;20344;-71
2023/05/09 00:21:24;;;;;;;9.60;7.33;;;;;;;13.06;83.33;97367.84;5026484;28;20660;-70
2023/05/09 00:23:51;;;;;;;10.70;8.10;;;;;;;13.13;82.44;97357.16;5026604;28;20327;-71
2023/05/09 00:26:18;;;;;;;9.30;7.77;;;;;;;13.05;83.08;97358.38;5026624;28;20201;-70
2023/05/09 00:28:46;;;;;;;10.63;8.30;;;;;;;13.02;82.53;97353.28;5025834;28;20297;-71
2023/05/09 00:31:13;;;;;;;10.23;7.53;;;;;;;13.09;82.20;97364.25;5026719;28;20195;-70
2023/05/09 00:33:40;;;;;;;9.93;8.63;;;;;;;12.90;82.97;97369.50;5024986;28;20595;-71
2023/05/09 00:36:07;;;;;;;11.47;8.13;;;;;;;12.89;83.53;97360.03;5024971;28;20255;-73
2023/05/09 00:38:35;;;;;;;10.90;8.53;;;;;;;12.85;83.36;97361.13;5026362;28;20192;-71
2023/05/09 00:41:02;;;;;;;17.50;8.33;;;;;;;12.90;83.44;97371.28;5026181;28;20196;-71
2023/05/09 00:43:29;;;;;;;11.87;8.00;;;;;;;12.85;83.52;97363.72;5026707;28;20221;-71
2023/05/09 00:45:56;;;;;;;10.07;8.23;;;;;;;12.81;83.50;97364.78;5025863;28;20281;-71
2023/05/09 00:48:24;;;;;;;11.73;8.67;;;;;;;12.95;82.42;97346.75;5026607;28;20514;-72
2023/05/09 00:50:51;;;;;;;11.30;8.93;;;;;;;12.90;82.48;97374.72;5026065;28;20192;-73
2023/05/09 00:53:19;;;;;;;10.70;7.67;;;;;;;12.78;83.11;97367.50;5024865;28;20194;-72
2023/05/09 00:55:47;;;;;;;11.27;8.77;;;;;;;12.74;83.54;97371.19;5026237;28;20309;-72
2023/05/09 00:58:14;;;;;;;11.73;8.30;;;;;;;12.79;83.79;97370.97;5024758;28;20184;-70
2023/05/09 01:00:42;;;;;;;10.70;8.50;;;;;;;12.83;82.36;97362.09;5026328;28;20247;-73
2023/05/09 01:03:09;;;;;;;13.17;8.83;;;;;;;12.79;83.33;97370.97;5025653;28;20213;-70
2023/05/09 01:06:25;;;;;;;11.67;8.17;;;;;;;12.94;82.39;97363.22;5026494;28;20197;-69
2023/05/09 01:09:31;;;;;;;10.73;7.93;;;;;;;12.87;82.42;97374.88;4996797;28;20203;-70
2023/05/09 01:12:12;;;;;;;9.60;8.07;;;;;;;12.72;82.92;97367.81;5025095;28;20206;-70
2023/05/09 01:15:07;;;;;;;11.67;8.27;;;;;;;12.67;83.98;97374.16;5028226;28;20192;-71
2023/05/09 01:18:01;;;;;;;14.87;9.20;;;;;;;12.64;83.86;97380.34;5028369;28;20187;-69
2023/05/09 01:20:39;;;;;;;12.17;8.60;;;;;;;12.56;83.51;97374.69;5029104;28;20278;-68
2023/05/09 01:23:09;;;;;;;10.10;7.87;;;;;;;12.42;83.97;97374.50;5029762;28;20363;-70
2023/05/09 01:26:01;;;;;;;11.17;8.13;;;;;;;12.56;84.58;97372.09;5029350;28;20245;-69
2023/05/09 01:28:43;;;;;;;9.60;8.37;;;;;;;12.69;84.07;97378.38;5029060;28;20225;-70
2023/05/09 01:31:10;;;;;;;12.20;8.30;;;;;;;12.82;83.91;97382.03;5029861;28;20563;-70
2023/05/09 01:33:39;;;;;;;11.97;9.10;;;;;;;12.71;83.49;97371.34;5011178;28;20616;-72
2023/05/09 01:36:14;;;;;;;10.63;8.77;;;;;;;12.70;84.23;97367.06;5029431;28;20223;-72
2023/05/09 01:38:43;;;;;;;11.80;8.70;;;;;;;12.79;83.60;97369.22;5029177;28;20689;-72
2023/05/09 01:41:14;;;;;;;11.53;9.13;;;;;;;12.86;83.63;97374.94;5029241;28;20187;-70
2023/05/09 01:43:46;;;;;;;13.23;9.03;;;;;;;12.93;83.66;97376.31;5011810;28;20196;-72
2023/05/09 01:46:16;;;;;;;10.47;8.83;;;;;;;12.91;83.06;97355.59;5027409;28;20201;-71
2023/05/09 01:48:44;;;;;;;9.93;7.97;;;;;;;13.01;82.89;97372.44;5028258;28;20222;-71
2023/05/09 01:51:14;;;;;;;11.90;9.83;;;;;;;12.94;83.18;97368.44;5028875;28;20190;-70
2023/05/09 01:53:42;;;;;;;11.50;9.33;;;;;;;13.03;81.77;97378.38;5027971;28;20665;-73
2023/05/09 01:56:11;;;;;;;10.87;8.63;;;;;;;12.85;82.75;97376.72;5028694;28;20322;-71
2023/05/09 01:58:40;;;;;;;11.60;8.23;;;;;;;12.86;82.62;97367.13;5027560;28;20190;-71
2023/05/09 02:01:08;;;;;;;10.77;8.20;;;;;;;12.80;83.09;97373.47;5027860;28;20198;-71
2023/05/09 02:03:37;;;;;;;9.47;8.37;;;;;;;12.79;83.48;97378.75;5027176;28;20760;-71
2023/05/09 02:06:05;;;;;;;13.20;8.87;;;;;;;12.75;83.46;97372.88;5027803;28;20200;-70
2023/05/09 02:08:32;;;;;;;10.23;7.77;;;;;;;12.58;83.76;97369.41;5045976;28;20265;-70
2023/05/09 02:10:59;;;;;;;12.47;9.10;;;;;;;12.54;83.47;97349.69;5048268;28;20209;-71
2023/05/09 02:13:27;;;;;;;11.87;9.20;;;;;;;12.77;83.73;97378.84;5047112;28;20195;-71
2023/05/09 02:15:56;;;;;;;10.50;8.50;;;;;;;12.84;83.47;97380.22;5046858;28;20319;-71
2023/05/09 02:18:23;;;;;;;8.47;7.57;;;;;;;12.65;83.19;97386.41;5047623;28;20591;-71
2023/05/09 02:20:50;;;;;;;10.27;8.00;;;;;;;12.85;82.93;97384.50;5048136;28;20196;-71
2023/05/09 02:23:18;;;;;;;9.90;7.90;;;;;;;12.78;82.90;97375.31;5047566;28;20618;-70
2023/05/09 02:25:45;;;;;;;10.87;9.73;;;;;;;12.74;83.46;97384.19;5046024;28;20277;-71
2023/05/09 02:28:13;;;;;;;15.40;8.77;;;;;;;12.59;84.49;97387.50;5048484;28;20642;-70
2023/05/09 02:30:46;;;;;;;10.27;8.00;;;;;;;12.60;84.40;97386.59;5048105;28;20808;-70
2023/05/09 02:33:13;;;;;;;12.80;9.10;;;;;;;12.55;84.93;97391.16;5048159;28;20232;-70
2023/05/09 02:35:43;;;;;;;13.03;9.70;;;;;;;12.67;85.14;97385.41;5048294;28;20211;-70
2023/05/09 02:38:13;;;;;;;12.27;8.90;;;;;;;12.53;85.19;97399.97;5047748;28;20202;-70
2023/05/09 02:40:43;;;;;;;12.27;9.50;;;;;;;12.70;85.18;97397.38;5047128;28;20188;-70
2023/05/09 02:43:10;;;;;;;12.37;8.97;;;;;;;12.75;85.04;97398.88;5046585;28;20674;-72
2023/05/09 02:45:37;;;;;;;11.57;9.20;;;;;;;12.83;85.17;97411.47;5048019;28;20296;-71
2023/05/09 02:48:05;;;;;;;10.67;9.57;;;;;;;12.80;84.39;97406.41;5046614;28;20187;-72
2023/05/09 02:50:37;;;;;;;12.03;9.27;;;;;;;12.81;84.54;97408.97;5047513;28;20244;-70
2023/05/09 02:53:05;;;;;;;12.13;8.97;;;;;;;12.68;84.86;97392.28;5030534;28;20199;-71
2023/05/09 02:55:32;;;;;;;10.23;9.13;;;;;;;12.75;85.12;97409.25;5047248;28;20187;-69
2023/05/09 02:57:59;;;;;;;12.20;9.13;;;;;;;12.69;85.28;97401.78;5046509;28;20207;-71
2023/05/09 03:00:41;;;;;;;12.97;9.67;;;;;;;12.70;85.91;97400.84;5031894;28;20187;-70
2023/05/09 03:03:10;;;;;;;12.23;9.23;;;;;;;12.79;85.26;97415.16;5046244;28;20202;-71
2023/05/09 03:05:37;;;;;;;15.43;10.47;;;;;;;12.79;85.35;97415.16;5046461;28;20194;-70
2023/05/09 03:08:04;;;;;;;15.03;9.80;;;;;;;12.71;85.43;97407.72;5062825;28;20186;-71
2023/05/09 03:10:33;;;;;;;12.53;9.77;;;;;;;12.81;85.36;97419.38;5048467;28;20192;-71
2023/05/09 03:13:00;;;;;;;11.93;9.53;;;;;;;12.49;86.44;97427.84;5046430;28;20187;-71
2023/05/09 03:15:27;;;;;;;12.87;10.13;;;;;;;12.53;86.21;97424.19;5044879;28;20752;-72
2023/05/09 03:17:55;;;;;;;14.40;10.37;;;;;;;12.44;87.21;97422.03;5057798;28;20233;-70
2023/05/09 03:20:22;;;;;;;13.93;10.47;;;;;;;12.53;87.11;97434.56;5046825;28;20296;-71
2023/05/09 03:22:49;;;;;;;15.83;10.17;;;;;;;12.01;87.40;97443.09;5046147;28;20281;-71
2023/05/09 03:25:16;;;;;;;15.03;9.97;;;;;;;12.02;87.61;97448.22;5047062;28;20190;-70
2023/05/09 03:27:43;;;;;;;10.87;8.70;;;;;;;12.00;86.07;97454.38;5046168;28;20713;-69
2023/05/09 03:30:14;;;;;;;12.37;8.90;;;;;;;12.08;85.86;97454.88;5043145;28;20207;-74
2023/05/09 03:32:43;;;;;;;10.47;7.73;;;;;;;12.07;85.34;97461.84;5036289;28;20194;-70
2023/05/09 03:35:10;;;;;;;10.07;8.33;;;;;;;12.07;84.81;97451.44;5045636;28;20654;-72
2023/05/09 03:37:37;;;;;;;12.67;8.63;;;;;;;12.07;84.84;97467.03;5071545;28;20767;-70
2023/05/09 03:40:06;;;;;;;13.33;7.90;;;;;;;12.07;85.75;97464.44;5026033;28;20180;-71
2023/05/09 03:42:40;;;;;;;13.47;8.50;;;;;;;11.98;85.57;97471.75;5025467;28;20229;-74
2023/05/09 03:45:09;;;;;;;10.63;8.17;;;;;;;11.65;86.73;97444.66;5026115;28;20223;-71
2023/05/09 03:47:36;;;;;;;10.43;7.90;;;;;;;11.67;86.95;97469.66;5025217;28;20193;-70
2023/05/09 03:50:05;;;;;;;11.53;8.90;;;;;;;11.85;86.26;97470.63;5025760;28;20193;-72
2023/05/09 03:52:33;;;;;;;11.10;8.57;;;;;;;11.66;86.97;97470.59;5025515;28;20225;-70
2023/05/09 03:55:02;;;;;;;10.63;8.17;;;;;;;11.37;87.27;97469.19;5026706;28;20219;-73
2023/05/09 03:57:34;;;;;;;12.50;7.70;;;;;;;11.25;88.41;97463.69;5042289;28;20791;-74
2023/05/09 04:00:04;;;;;;;12.10;8.17;;;;;;;11.27;88.24;97473.06;5046384;28;20217;-75
2023/05/09 04:02:41;;;;;;;10.73;7.83;;;;;;;11.38;89.11;97475.22;5026991;28;20662;-74
2023/05/09 04:05:16;;;;;;;13.47;10.43;;;;;;;11.51;88.32;97478.13;5035447;28;20192;-74
2023/05/09 04:07:44;;;;;;;10.57;7.43;;;;;;;11.43;88.10;97481.91;5033992;28;20198;-74
2023/05/09 04:10:13;;;;;;;10.60;8.50;;;;;;;11.51;88.02;97486.78;5032599;28;20194;-75
2023/05/09 04:12:41;;;;;;;12.50;8.70;;;;;;;11.47;88.12;97474.84;5042542;28;20202;-72
2023/05/09 04:15:09;;;;;;;13.53;9.50;;;;;;;11.26;88.13;97465.34;5053079;28;20194;-75
2023/05/09 04:17:37;;;;;;;11.23;9.20;;;;;;;11.11;89.83;97491.91;5032789;28;20712;-72
2023/05/09 04:20:07;;;;;;;10.97;7.70;;;;;;;11.12;89.99;97499.63;5042503;28;20194;-75
2023/05/09 04:22:35;;;;;;;10.97;8.17;;;;;;;11.05;90.02;97472.28;5066418;28;20303;-74
2023/05/09 04:25:03;;;;;;;10.63;7.87;;;;;;;10.96;90.47;97484.78;5065302;28;20273;-73
2023/05/09 04:27:30;;;;;;;11.77;8.30;;;;;;;11.08;90.50;97492.91;5048879;28;20189;-73
2023/05/09 04:29:58;;;;;;;12.40;8.47;;;;;;;11.24;90.06;97488.78;5048573;28;20250;-73
2023/05/09 04:32:26;;;;;;;12.10;8.50;;;;;;;11.22;90.08;97495.75;5065578;28;20185;-73
2023/05/09 04:34:53;;;;;;;15.53;8.27;;;;;;;11.47;88.73;97495.59;5047957;28;20194;-75
2023/05/09 04:37:24;;;;;;;13.10;7.63;;;;;;;11.56;88.39;97486.59;5064961;28;20303;-72
2023/05/09 04:39:52;;;;;;;11.40;7.47;;;;;;;11.74;86.90;97497.06;5049169;28;20195;-74
2023/05/09 04:42:26;;;;;;;10.67;7.87;;;;;;;11.77;87.73;97503.84;5044601;28;20186;-73
2023/05/09 04:44:53;;;;;;;12.57;7.63;;;;;;;11.63;87.19;97498.38;5046150;28;20247;-74
2023/05/09 04:47:21;;;;;;;9.03;7.27;;;;;;;11.72;87.91;97498.03;5044476;28;20199;-73
2023/05/09 04:49:48;;;;;;;10.83;7.70;;;;;;;11.78;87.86;97502.94;5032768;28;20291;-71
2023/05/09 04:52:15;;;;;;;11.83;7.63;;;;;;;11.87;87.74;97505.16;5048389;28;20198;-73
2023/05/09 04:54:43;;;;;;;9.73;7.77;;;;;;;11.68;86.51;97499.06;5048889;28;20248;-74
2023/05/09 04:57:11;;;;;;;14.83;8.37;;;;;;;11.74;86.93;97510.03;5048617;28;20350;-72
2023/05/09 04:59:49;;;;;;;11.70;8.03;;;;;;;11.90;86.77;97510.19;5032116;28;20578;-73
2023/05/09 05:02:17;;;;;;;11.80;7.80;;;;;;;11.65;86.80;97507.78;5056152;28;20197;-70
2023/05/09 05:04:46;;;;;;;12.43;7.83;;;;;;;11.57;87.12;97511.59;5053631;28;20193;-73
2023/05/09 05:07:14;;;;;;;13.03;9.10;;;;;;;11.77;86.21;97509.03;5049220;28;20243;-74
2023/05/09 05:09:42;;;;;;;11.07;7.37;;;;;;;11.64;86.98;97495.72;5048048;28;20196;-72
2023/05/09 05:12:12;;;;;;;9.60;7.80;;;;;;;11.86;86.64;97513.84;5048463;28;20709;-74
2023/05/09 05:14:41;;;;;;;10.97;8.17;;;;;;;11.88;86.10;97497.28;5030995;28;20218;-73
2023/05/09 05:17:11;;;;;;;10.60;7.60;;;;;;;12.13;85.68;97513.47;5011339;28;20239;-72
2023/05/09 05:19:39;;;;;;;14.80;8.53;;;;;;;12.20;85.49;97520.06;5029402;28;20186;-74
2023/05/09 05:22:07;;;;;;;18.57;9.03;;;;;;;12.18;86.02;97510.66;5019755;28;20207;-72
2023/05/09 05:24:37;;;;;;;15.20;9.23;;;;;;;12.32;84.89;97513.50;5048738;28;20207;-74
2023/05/09 05:27:04;;;;;;;12.63;9.10;;;;;;;12.48;84.34;97524.88;5047933;28;20232;-73
2023/05/09 05:29:31;;;;;;;14.37;8.63;;;;;;;12.48;84.08;97517.09;5047772;28;20217;-74
2023/05/09 05:31:58;;;;;;;10.60;7.77;;;;;;;12.35;83.52;97513.34;5031280;28;20261;-71
2023/05/09 05:34:25;;;;;;;10.67;7.47;;;;;;;12.21;83.46;97490.59;5049005;28;20184;-72
2023/05/09 05:36:52;;;;;;;11.10;7.83;;;;;;;12.17;84.12;97522.81;5048879;28;20223;-72
2023/05/09 05:39:19;;;;;;;16.67;8.73;;;;;;;12.33;83.69;97524.72;5037372;28;20195;-78
2023/05/09 05:41:47;;;;;;;14.80;8.80;;;;;;;12.24;83.98;97521.63;5028204;28;20187;-73
2023/05/09 05:44:15;;;;;;;18.47;9.03;;;;;;;11.98;84.21;97488.19;5027845;28;20188;-72
2023/05/09 05:46:44;;;;;;;10.13;7.93;;;;;;;12.25;84.31;97533.72;5028901;28;20235;-73
2023/05/09 05:49:11;;;;;;;13.37;9.63;;;;;;;12.37;84.17;97527.09;5037231;28;20191;-70
2023/05/09 05:51:38;;;;;;;15.67;9.80;;;;;;;12.16;84.49;97502.94;5036627;28;20682;-74
2023/05/09 05:54:07;;;;;;;13.80;10.00;;;;;;;12.26;83.79;97521.56;5029895;28;20290;-70
2023/05/09 05:56:35;;;;;;;11.47;8.33;;;;;;;12.41;83.70;97530.41;5043734;28;20203;-74
2023/05/09 05:59:09;;;;;;;14.07;8.93;;;;;;;12.31;83.93;97537.78;5028510;28;20266;-75
2023/05/09 06:01:39;;;;;;;12.90;8.73;;;;;;;12.22;84.30;97530.38;5010449;28;20872;-74
2023/05/09 06:04:06;;;;;;;12.20;8.73;;;;;;;12.16;84.75;97522.88;5027483;28;20187;-74
2023/05/09 06:06:34;;;;;;;13.80;9.83;;;;;;;12.22;85.26;97520.00;5027326;28;20195;-74
2023/05/09 06:09:01;;;;;;;12.90;9.07;;;;;;;12.11;85.29;97524.84;5028554;28;20192;-75
2023/05/09 06:11:28;;;;;;;14.97;10.27;;;;;;;12.08;85.73;97530.16;5027061;28;20189;-73
2023/05/09 06:13:55;;;;;;;12.50;9.33;;;;;;;12.11;85.05;97535.22;5030030;28;20253;-74
2023/05/09 06:16:23;;;;;;;17.53;11.10;;;;;;;12.27;85.74;97529.28;5047893;28;20977;-78
2023/05/09 06:18:54;;;;;;;14.87;9.63;;;;;;;12.03;85.85;97532.97;5046598;28;20189;-75
2023/05/09 06:21:22;;;;;;;12.60;9.03;;;;;;;12.05;85.70;97532.91;5048224;28;20243;-74
2023/05/09 06:23:49;;;;;;;11.70;9.00;;;;;;;11.98;85.71;97531.47;5048269;28;20247;-75
2023/05/09 06:26:23;;;;;;;14.40;10.50;;;;;;;12.11;86.13;97533.47;5046480;28;20195;-73
2023/05/09 06:28:50;;;;;;;14.17;9.87;;;;;;;12.26;85.27;97534.56;5046844;28;20225;-73
2023/05/09 06:31:17;;;;;;;15.87;10.03;;;;;;;12.40;84.49;97539.97;5064161;28;20207;-74
2023/05/09 06:33:44;;;;;;;11.47;9.10;;;;;;;12.29;85.51;97526.59;5072623;28;20753;-72
2023/05/09 06:36:11;;;;;;;16.37;10.50;;;;;;;12.41;85.21;97533.84;5073626;28;20204;-72
2023/05/09 06:38:38;;;;;;;18.17;9.50;;;;;;;12.38;85.05;97533.16;5071291;28;20275;-75
2023/05/09 06:41:05;;;;;;;12.97;8.90;;;;;;;12.38;83.61;97528.81;5066731;28;20194;-76
2023/05/09 06:43:32;;;;;;;13.23;10.63;;;;;;;12.36;84.33;97515.06;5067595;28;20220;-76
2023/05/09 06:46:00;;;;;;;17.83;10.33;;;;;;;12.67;83.62;97530.94;5066383;28;20205;-72
2023/05/09 06:48:27;;;;;;;12.97;9.50;;;;;;;12.82;82.07;97529.34;5067305;28;20182;-74
2023/05/09 06:50:54;;;;;;;17.97;10.27;;;;;;;12.84;82.58;97549.16;5066538;28;20267;-73
2023/05/09 06:53:21;;;;;;;25.23;11.87;;;;;;;12.81;82.95;97527.66;5066653;28;20280;-72
2023/05/09 06:55:49;;;;;;;13.90;9.00;;;;;;;12.65;81.74;97527.53;5065878;28;20208;-72
2023/05/09 06:58:16;;;;;;;13.30;9.27;;;;;;;12.70;81.95;97528.16;5066897;28;20700;-77
2023/05/09 07:00:43;;;;;;;14.37;9.57;;;;;;;12.92;81.87;97530.63;5066623;28;20666;-73
2023/05/09 07:03:10;;;;;;;10.23;8.13;;;;;;;12.89;80.82;97516.00;5066816;28;20701;-73
2023/05/09 07:05:37;;;;;;;11.47;8.20;;;;;;;12.69;80.99;97523.91;5066389;28;20203;-74
2023/05/09 07:08:04;;;;;;;12.97;8.67;;;;;;;12.73;81.58;97519.41;5066881;28;20191;-73
2023/05/09 07:10:31;;;;;;;9.40;7.80;;;;;;;12.65;82.33;97537.91;5066470;28;20188;-73
2023/05/09 07:12:58;;;;;;;12.70;8.27;;;;;;;12.49;81.95;97518.75;5067274;28;20256;-72
2023/05/09 07:15:26;;;;;;;12.17;7.50;;;;;;;12.57;81.88;97519.25;5066537;28;20296;-72
2023/05/09 07:18:07;;;;;;;23.00;11.07;;;;;;;12.69;82.92;97529.09;5067350;28;20226;-75
2023/05/09 07:20:35;;;;;;;16.20;10.67;;;;;;;12.70;82.21;97535.97;5069660;28;20663;-71
2023/05/09 07:23:03;;;;;;;17.60;8.67;;;;;;;12.63;83.07;97537.16;5070851;28;20260;-73
2023/05/09 07:25:30;;;;;;;17.43;9.17;;;;;;;12.63;83.94;97534.53;5067837;28;20249;-72
2023/05/09 07:27:58;;;;;;;16.33;10.70;;;;;;;12.50;85.35;97538.63;5065360;28;20585;-75
2023/05/09 07:30:25;;;;;;;11.63;7.83;;;;;;;12.44;84.58;97538.06;5099288;28;20202;-74
2023/05/09 07:32:54;;;;;;;12.10;7.43;;;;;;;12.32;84.59;97543.81;5066366;28;20203;-71
2023/05/09 07:35:22;;;;;;;18.20;11.27;;;;;;;12.29;85.99;97544.78;5064935;28;20215;-74
2023/05/09 07:37:49;;;;;;;13.87;9.67;;;;;;;12.12;86.57;97537.75;5064883;28;20617;-73
2023/05/09 07:40:16;;;;;;;14.83;9.90;;;;;;;12.36;86.16;97545.38;5064770;28;20237;-73
2023/05/09 07:42:48;;;;;;;18.73;12.80;;;;;;;12.36;86.46;97551.41;5066746;28;21164;-72
2023/05/09 07:45:16;;;;;;;12.80;9.20;;;;;;;12.30;86.46;97545.63;5065742;28;20220;-72
2023/05/09 07:47:45;;;;;;;11.53;7.63;;;;;;;12.25;86.95;97532.84;5048688;28;20250;-73
2023/05/09 07:50:12;;;;;;;12.03;9.30;;;;;;;11.97;87.99;97503.84;5065936;28;20204;-75
2023/05/09 07:52:39;;;;;;;11.00;7.77;;;;;;;11.96;87.69;97504.72;5066170;28;20240;-73
2023/05/09 07:55:08;;;;;;;10.33;8.00;;;;;;;12.25;88.03;97541.50;5066193;28;20216;-73
2023/05/09 07:57:35;;;;;;;10.00;7.67;;;;;;;11.82;89.06;97505.34;5047808;28;20293;-73
2023/05/09 08:00:05;;;;;;;10.47;7.70;;;;;;;12.20;89.02;97546.03;5066991;28;20196;-72
2023/05/09 08:02:40;;;;;;;10.40;9.30;;;;;;;12.19;89.42;97538.31;5065888;28;20271;-72
2023/05/09 08:05:10;;;;;;;10.43;8.57;;;;;;;12.31;90.43;97542.97;5066293;28;20284;-74
2023/05/09 08:07:38;;;;;;;11.73;8.53;;;;;;;12.40;89.92;97547.75;5069364;28;20759;-72
2023/05/09 08:10:08;;;;;;;12.73;9.03;;;;;;;12.35;89.33;97549.72;5057471;28;20218;-71
2023/05/09 08:12:43;;;;;;;10.67;8.20;;;;;;;12.20;88.44;97537.41;5072300;28;20183;-73
2023/05/09 08:15:10;;;;;;;8.73;7.83;;;;;;;12.08;87.01;97556.09;5066748;28;20196;-71
2023/05/09 08:17:39;;;;;;;8.77;6.60;;;;;;;12.03;88.18;97553.75;5068022;28;20233;-74
2023/05/09 08:20:07;;;;;;;13.37;9.03;;;;;;;12.09;89.10;97563.84;5049324;28;20194;-72
2023/05/09 08:22:34;;;;;;;11.30;8.73;;;;;;;11.78;89.41;97541.88;5065793;28;20197;-72
2023/05/09 08:25:03;;;;;;;13.90;8.37;;;;;;;11.86;90.77;97544.97;5070309;28;20292;-73
2023/05/09 08:27:32;;;;;;;10.33;7.77;;;;;;;11.85;90.36;97558.88;5070035;28;20204;-72
2023/05/09 08:30:00;;;;;;;9.70;7.77;;;;;;;11.71;90.84;97550.81;5070453;28;20239;-72
2023/05/09 08:32:31;;;;;;;12.57;7.80;;;;;;;11.98;90.66;97562.63;5068267;28;20195;-74
2023/05/09 08:35:00;;;;;;;15.13;9.90;;;;;;;12.11;90.02;97556.84;5069565;28;20789;-75
2023/05/09 08:37:30;;;;;;;13.97;9.73;;;;;;;12.28;90.85;97563.91;5068434;28;20326;-72
2023/05/09 08:39:57;;;;;;;11.53;8.37;;;;;;;12.09;87.59;97563.00;5069793;28;20189;-71
2023/05/09 08:42:25;;;;;;;10.67;7.80;;;;;;;11.96;88.29;97567.03;5068102;28;20242;-74
2023/05/09 08:44:52;;;;;;;12.30;8.70;;;;;;;12.01;88.18;97536.53;5069625;28;20227;-75
2023/05/09 08:47:22;;;;;;;11.10;7.97;;;;;;;12.04;87.88;97564.94;5070154;28;20189;-71
2023/05/09 08:49:50;;;;;;;12.77;9.20;;;;;;;12.15;88.21;97562.72;5067941;28;20280;-74
2023/05/09 08:52:18;;;;;;;12.00;9.10;;;;;;;12.16;87.65;97539.28;5052572;28;20746;-71
2023/05/09 08:54:46;;;;;;;13.17;8.70;;;;;;;12.49;87.24;97565.50;5073424;28;20668;-73
2023/05/09 08:57:14;;;;;;;10.93;7.80;;;;;;;12.27;86.67;97551.81;5073472;28;20560;-72
2023/05/09 08:59:42;;;;;;;10.70;8.33;;;;;;;12.47;86.86;97553.53;5069523;28;20207;-72
2023/05/09 09:02:13;;;;;;;12.37;8.13;;;;;;;12.47;87.01;97554.34;5068466;28;20270;-73
2023/05/09 09:04:41;;;;;;;11.80;8.00;;;;;;;12.24;86.54;97549.38;5068205;28;20208;-74
2023/05/09 09:07:12;;;;;;;14.07;8.80;;;;;;;12.35;87.04;97562.69;5067066;28;20284;-73
2023/05/09 09:09:44;;;;;;;16.17;8.53;;;;;;;12.30;86.63;97559.47;5069391;28;20706;-74
2023/05/09 09:12:14;;;;;;;13.03;8.43;;;;;;;12.33;86.38;97554.13;5067786;28;20256;-73
2023/05/09 09:14:47;;;;;;;10.33;8.50;;;;;;;12.42;87.04;97563.28;5068943;28;20188;-74
2023/05/09 09:17:18;;;;;;;11.90;8.80;;;;;;;12.39;86.08;97555.59;5051130;28;20549;-73
2023/05/09 09:19:48;;;;;;;13.27;10.17;;;;;;;12.61;87.04;97561.53;5061898;28;20688;-72
2023/05/09 09:22:19;;;;;;;13.60;8.93;;;;;;;12.42;86.43;97558.94;5049527;28;20186;-72
2023/05/09 09:24:46;;;;;;;18.20;15.53;;;;;;;12.36;86.37;97556.59;5048686;28;20194;-72
2023/05/09 09:27:13;;;;;;;13.93;9.43;;;;;;;12.22;85.94;97564.13;5047479;28;20190;-72
2023/05/09 09:29:41;;;;;;;16.27;11.53;;;;;;;12.42;86.35;97556.34;5049009;28;20822;-75
2023/05/09 09:32:11;;;;;;;15.90;9.70;;;;;;;12.44;87.08;97558.84;5048408;28;20196;-75
2023/05/09 09:34:38;;;;;;;12.67;8.60;;;;;;;12.33;86.91;97567.13;5048432;28;20192;-75
2023/05/09 09:37:07;;;;;;;12.07;8.60;;;;;;;12.37;87.42;97558.28;5048721;28;20236;-74
2023/05/09 09:39:35;;;;;;;13.00;8.80;;;;;;;12.37;86.96;97563.47;5047935;28;20230;-75
2023/05/09 09:42:10;;;;;;;15.40;8.40;;;;;;;12.46;87.54;97564.81;5049705;28;20257;-72
2023/05/09 09:44:37;;;;;;;12.67;9.00;;;;;;;12.55;86.52;97562.63;5039281;28;20274;-72
2023/05/09 09:47:09;;;;;;;13.80;10.00;;;;;;;12.50;87.52;97559.41;5032425;28;20200;-73
2023/05/09 09:49:36;;;;;;;14.87;9.70;;;;;;;12.49;86.61;97568.09;5027841;28;20213;-74
2023/05/09 09:52:03;;;;;;;16.57;10.47;;;;;;;12.37;87.14;97562.63;5029446;28;20190;-73
2023/05/09 09:54:30;;;;;;;14.33;10.27;;;;;;;12.35;88.04;97561.84;5028161;28;20195;-72
2023/05/09 09:56:58;;;;;;;14.83;10.37;;;;;;;12.30;87.98;97562.06;5027329;28;20209;-72
2023/05/09 09:59:27;;;;;;;15.43;9.77;;;;;;;12.24;86.97;97564.94;5027092;28;20227;-73
2023/05/09 10:01:56;;;;;;;19.53;9.50;;;;;;;12.23;88.06;97561.50;5026942;28;20195;-75
2023/05/09 10:04:25;;;;;;;13.90;10.90;;;;;;;12.40;88.15;97570.28;5028151;28;20284;-72
2023/05/09 10:07:04;;;;;;;10.80;8.43;;;;;;;12.31;87.70;97563.75;5028102;28;20192;-73
2023/05/09 10:09:34;;;;;;;10.77;7.87;;;;;;;12.46;86.33;97568.28;5027184;28;20200;-73
2023/05/09 10:12:03;;;;;;;14.67;10.60;;;;;;;12.42;88.53;97563.28;5027446;28;20186;-75
2023/05/09 10:14:32;;;;;;;14.13;10.57;;;;;;;12.48;88.67;97558.66;5028017;28;20615;-72
2023/05/09 10:17:03;;;;;;;11.43;8.73;;;;;;;12.47;88.50;97558.72;5027533;28;20679;-75
2023/05/09 10:19:31;;;;;;;12.90;9.33;;;;;;;12.45;88.46;97563.13;5026190;28;20226;-73
2023/05/09 10:22:08;;;;;;;13.63;10.20;;;;;;;12.57;88.60;97563.41;5027808;28;20197;-73
2023/05/09 10:24:58;;;;;;;12.07;7.60;;;;;;;12.46;87.38;97564.81;5027207;28;20197;-72
2023/05/09 10:27:27;;;;;;;8.90;6.73;;;;;;;12.37;88.12;97562.63;5029593;28;20194;-72
2023/05/09 10:30:21;;;;;;;7.70;6.30;;;;;;;12.40;87.59;97570.28;5032963;28;20223;-73
2023/05/09 10:33:02;;;;;;;8.23;6.83;;;;;;;12.24;87.96;97564.94;5029496;28;20305;-73
2023/05/09 10:35:39;;;;;;;10.50;7.50;;;;;;;12.37;89.10;97550.47;5026918;28;20199;-72
2023/05/09 10:38:06;;;;;;;10.63;8.30;;;;;;;12.51;88.25;97566.28;5026008;28;20324;-73
2023/05/09 10:40:34;;;;;;;9.63;7.37;;;;;;;12.53;88.08;97574.03;5027859;28;20657;-74
2023/05/09 10:43:01;;;;;;;14.87;7.10;;;;;;;12.48;87.93;97563.84;5025996;28;20187;-76
2023/05/09 10:45:30;;;;;;;12.03;6.70;;;;;;;12.32;87.18;97525.63;5024778;28;20193;-75
2023/05/09 10:47:58;;;;;;;8.93;7.07;;;;;;;12.15;88.46;97571.38;5026267;28;20722;-74
2023/05/09 10:50:26;;;;;;;8.20;6.80;;;;;;;11.95;89.04;97565.34;5027432;28;20278;-74
2023/05/09 10:53:15;;;;;;;9.57;6.90;;;;;;;11.74;90.31;97574.03;5010312;28;20214;-73
2023/05/09 10:55:46;;;;;;;9.67;7.37;;;;;;;11.67;90.91;97575.19;5026199;28;20187;-74
2023/05/09 10:58:25;;;;;;;9.30;6.67;;;;;;;11.64;92.43;97570.97;5025677;28;20410;-74
2023/05/09 11:00:55;;;;;;;10.33;8.37;;;;;;;12.06;91.41;97565.72;5026999;28;20323;-71
2023/05/09 11:03:24;;;;;;;11.07;7.93;;;;;;;12.04;91.40;97562.34;5025740;28;20189;-71
2023/05/09 11:05:56;;;;;;;9.80;7.87;;;;;;;12.27;90.16;97562.19;5027542;28;20193;-71
2023/05/09 11:08:24;;;;;;;10.97;7.70;;;;;;;12.39;89.46;97566.84;5026609;28;20184;-73
2023/05/09 11:10:54;;;;;;;10.13;7.40;;;;;;;12.50;89.39;97563.78;5025574;28;20678;-74
2023/05/09 11:13:23;;;;;;;9.90;6.00;;;;;;;12.67;87.07;97562.09;5030287;28;20222;-71
2023/05/09 11:16:00;;;;;;;7.90;5.87;;;;;;;12.70;86.47;97561.94;5033635;28;20188;-74
2023/05/09 11:18:28;;;;;;;12.07;5.90;;;;;;;12.65;88.12;97563.91;5028611;28;20232;-73
2023/05/09 11:20:55;;;;;;;5.97;4.90;;;;;;;12.38;87.26;97562.56;5026883;28;20195;-75
2023/05/09 11:23:30;;;;;;;6.27;5.67;;;;;;;12.33;87.71;97551.53;5035904;28;20241;-73
2023/05/09 11:26:06;;;;;;;8.37;5.83;;;;;;;12.64;88.07;97572.63;5028975;28;20194;-72
2023/05/09 11:28:35;;;;;;;5.97;5.10;;;;;;;12.49;87.94;97565.50;5046134;28;20311;-72
2023/05/09 11:31:15;;;;;;;6.33;4.80;;;;;;;12.62;86.16;97574.44;5044914;28;20187;-73
2023/05/09 11:33:47;;;;;;;6.60;4.43;;;;;;;12.58;86.61;97570.31;5032741;28;20603;-71
2023/05/09 11:36:32;;;;;;;5.40;4.80;;;;;;;12.93;86.64;97561.75;5027281;28;20194;-72